createdAt,value
2023-05-18T00:00:01.722Z,1025.55
2023-05-18T00:00:11.164Z,1025.50
2023-05-18T00:00:20.543Z,1025.53
2023-05-18T00:00:29.948Z,1025.52
2023-05-18T00:00:39.355Z,1025.50
2023-05-18T00:00:48.745Z,1025.52
2023-05-18T00:01:07.558Z,1025.53
2023-05-18T00:01:16.939Z,1025.54
2023-05-18T00:01:26.336Z,1025.50
2023-05-18T00:01:35.719Z,1025.46
2023-05-18T00:01:45.107Z,1025.56
2023-05-18T00:01:54.481Z,1025.56
2023-05-18T00:02:13.329Z,1025.60
2023-05-18T00:02:22.716Z,1025.57
2023-05-18T00:02:32.155Z,1025.58
2023-05-18T00:02:41.619Z,1025.58
2023-05-18T00:02:51.033Z,1025.57
2023-05-18T00:03:00.421Z,1025.56
2023-05-18T00:03:19.259Z,1025.59
2023-05-18T00:03:28.714Z,1025.60
2023-05-18T00:03:38.096Z,1025.55
2023-05-18T00:03:47.612Z,1025.59
2023-05-18T00:03:56.838Z,1025.56
2023-05-18T00:04:06.224Z,1025.59
2023-05-18T00:04:24.953Z,1025.60
2023-05-18T00:04:34.398Z,1025.56
2023-05-18T00:04:43.855Z,1025.54
2023-05-18T00:04:53.319Z,1025.61
2023-05-18T00:05:02.544Z,1025.56
2023-05-18T00:05:11.945Z,1025.58
2023-05-18T00:05:30.925Z,1025.56
2023-05-18T00:05:40.105Z,1025.59
2023-05-18T00:05:49.595Z,1025.59
2023-05-18T00:05:58.981Z,1025.57
2023-05-18T00:06:08.373Z,1025.55
2023-05-18T00:06:17.774Z,1025.54
2023-05-18T00:06:36.589Z,1025.55
2023-05-18T00:06:45.965Z,1025.58
2023-05-18T00:06:55.341Z,1025.53
2023-05-18T00:07:04.776Z,1025.63
2023-05-18T00:07:14.180Z,1025.60
2023-05-18T00:07:23.588Z,1025.65
2023-05-18T00:07:42.690Z,1025.57
2023-05-18T00:07:51.808Z,1025.56
2023-05-18T00:08:01.203Z,1025.53
2023-05-18T00:08:10.646Z,1025.61
2023-05-18T00:08:20.014Z,1025.55
2023-05-18T00:08:29.399Z,1025.56
2023-05-18T00:08:48.200Z,1025.68
2023-05-18T00:08:57.599Z,1025.64
2023-05-18T00:09:07.009Z,1025.59
2023-05-18T00:09:16.409Z,1025.60
2023-05-18T00:09:25.787Z,1025.58
2023-05-18T00:09:35.181Z,1025.59
2023-05-18T00:09:54.044Z,1025.66
2023-05-18T00:10:03.506Z,1025.63
2023-05-18T00:10:12.899Z,1025.59
2023-05-18T00:10:22.306Z,1025.62
2023-05-18T00:10:31.748Z,1025.62
2023-05-18T00:10:41.054Z,1025.62
2023-05-18T00:10:59.816Z,1025.67
2023-05-18T00:11:09.213Z,1025.60
2023-05-18T00:11:18.588Z,1025.61
2023-05-18T00:11:27.959Z,1025.62
2023-05-18T00:11:37.353Z,1025.60
2023-05-18T00:11:46.747Z,1025.62
2023-05-18T00:12:05.601Z,1025.63
2023-05-18T00:12:14.997Z,1025.58
2023-05-18T00:12:24.394Z,1025.59
2023-05-18T00:12:33.784Z,1025.59
2023-05-18T00:12:43.247Z,1025.64
2023-05-18T00:12:52.650Z,1025.59
2023-05-18T00:13:11.468Z,1025.58
2023-05-18T00:13:20.852Z,1025.58
2023-05-18T00:13:30.242Z,1025.66
2023-05-18T00:13:39.637Z,1025.59
2023-05-18T00:13:49.006Z,1025.64
2023-05-18T00:13:58.395Z,1025.60
2023-05-18T00:14:17.180Z,1025.63
2023-05-18T00:14:26.601Z,1025.64
2023-05-18T00:14:35.976Z,1025.61
2023-05-18T00:14:45.354Z,1025.66
2023-05-18T00:14:54.737Z,1025.61
2023-05-18T00:15:04.125Z,1025.62
2023-05-18T00:15:22.903Z,1025.66
2023-05-18T00:15:32.569Z,1025.60
2023-05-18T00:15:41.725Z,1025.68
2023-05-18T00:15:51.168Z,1025.61
2023-05-18T00:16:00.674Z,1025.62
2023-05-18T00:16:09.942Z,1025.65
2023-05-18T00:16:28.736Z,1025.60
2023-05-18T00:16:38.203Z,1025.64
2023-05-18T00:16:47.813Z,1025.62
2023-05-18T00:16:56.908Z,1025.65
2023-05-18T00:17:06.332Z,1025.65
2023-05-18T00:17:15.700Z,1025.66
2023-05-18T00:17:34.521Z,1025.60
2023-05-18T00:17:43.910Z,1025.63
2023-05-18T00:17:53.431Z,1025.60
2023-05-18T00:18:02.701Z,1025.62
2023-05-18T00:18:12.098Z,1025.57
2023-05-18T00:18:21.528Z,1025.62
2023-05-18T00:18:40.362Z,1025.65
2023-05-18T00:18:49.834Z,1025.58
2023-05-18T00:18:59.269Z,1025.55
2023-05-18T00:19:08.718Z,1025.62
2023-05-18T00:19:18.081Z,1025.64
2023-05-18T00:19:27.484Z,1025.69
2023-05-18T00:19:46.202Z,1025.61
2023-05-18T00:19:55.605Z,1025.64
2023-05-18T00:20:05.016Z,1025.62
2023-05-18T00:20:14.394Z,1025.66
2023-05-18T00:20:23.770Z,1025.66
2023-05-18T00:20:33.150Z,1025.62
2023-05-18T00:20:51.953Z,1025.65
2023-05-18T00:21:01.383Z,1025.60
2023-05-18T00:21:10.816Z,1025.72
2023-05-18T00:21:20.166Z,1025.67
2023-05-18T00:21:29.550Z,1025.62
2023-05-18T00:21:38.951Z,1025.65
2023-05-18T00:21:57.755Z,1025.65
2023-05-18T00:22:07.172Z,1025.65
2023-05-18T00:22:16.564Z,1025.65
2023-05-18T00:22:25.964Z,1025.64
2023-05-18T00:22:35.369Z,1025.67
2023-05-18T00:22:44.746Z,1025.69
2023-05-18T00:23:03.559Z,1025.69
2023-05-18T00:23:13.005Z,1025.67
2023-05-18T00:23:22.378Z,1025.69
2023-05-18T00:23:31.767Z,1025.68
2023-05-18T00:23:41.162Z,1025.60
2023-05-18T00:23:50.576Z,1025.62
2023-05-18T00:24:09.442Z,1025.68
2023-05-18T00:24:18.827Z,1025.68
2023-05-18T00:24:28.230Z,1025.68
2023-05-18T00:24:37.624Z,1025.62
2023-05-18T00:24:47.019Z,1025.64
2023-05-18T00:24:56.403Z,1025.64
2023-05-18T00:25:15.187Z,1025.65
2023-05-18T00:25:24.606Z,1025.73
2023-05-18T00:25:33.985Z,1025.67
2023-05-18T00:25:43.379Z,1025.65
2023-05-18T00:25:52.752Z,1025.66
2023-05-18T00:26:02.131Z,1025.61
2023-05-18T00:26:20.912Z,1025.66
2023-05-18T00:26:30.291Z,1025.67
2023-05-18T00:26:39.676Z,1025.66
2023-05-18T00:26:49.050Z,1025.62
2023-05-18T00:26:58.465Z,1025.64
2023-05-18T00:27:07.921Z,1025.64
2023-05-18T00:27:26.668Z,1025.67
2023-05-18T00:27:36.069Z,1025.67
2023-05-18T00:27:45.466Z,1025.71
2023-05-18T00:27:54.866Z,1025.77
2023-05-18T00:28:04.285Z,1025.76
2023-05-18T00:28:13.665Z,1025.66
2023-05-18T00:28:32.454Z,1025.68
2023-05-18T00:28:41.850Z,1025.71
2023-05-18T00:28:51.270Z,1025.65
2023-05-18T00:29:00.655Z,1025.70
2023-05-18T00:29:10.049Z,1025.71
2023-05-18T00:29:19.451Z,1025.77
2023-05-18T00:29:38.247Z,1025.69
2023-05-18T00:29:47.641Z,1025.66
2023-05-18T00:29:57.010Z,1025.72
2023-05-18T00:30:06.412Z,1025.76
2023-05-18T00:30:15.807Z,1025.68
2023-05-18T00:30:25.199Z,1025.73
2023-05-18T00:30:44.007Z,1025.66
2023-05-18T00:30:53.429Z,1025.73
2023-05-18T00:31:02.831Z,1025.73
2023-05-18T00:31:12.242Z,1025.76
2023-05-18T00:31:21.710Z,1025.71
2023-05-18T00:31:31.045Z,1025.66
2023-05-18T00:31:49.955Z,1025.70
2023-05-18T00:31:59.371Z,1025.71
2023-05-18T00:32:08.780Z,1025.68
2023-05-18T00:32:18.150Z,1025.68
2023-05-18T00:32:27.619Z,1025.69
2023-05-18T00:32:36.968Z,1025.70
2023-05-18T00:32:55.796Z,1025.65
2023-05-18T00:33:05.184Z,1025.70
2023-05-18T00:33:14.505Z,1025.75
2023-05-18T00:33:23.955Z,1025.70
2023-05-18T00:33:33.335Z,1025.73
2023-05-18T00:33:42.736Z,1025.66
2023-05-18T00:34:01.510Z,1025.74
2023-05-18T00:34:10.869Z,1025.75
2023-05-18T00:34:23.353Z,1025.73
2023-05-18T00:34:30.188Z,1025.72
2023-05-18T00:34:39.597Z,1025.75
2023-05-18T00:34:49.009Z,1025.75
2023-05-18T00:35:07.835Z,1025.70
2023-05-18T00:35:17.209Z,1025.76
2023-05-18T00:35:26.605Z,1025.84
2023-05-18T00:35:35.991Z,1025.69
2023-05-18T00:35:45.405Z,1025.71
2023-05-18T00:35:54.790Z,1025.73
2023-05-18T00:36:13.577Z,1025.73
2023-05-18T00:36:22.986Z,1025.78
2023-05-18T00:36:32.396Z,1025.79
2023-05-18T00:36:41.806Z,1025.73
2023-05-18T00:36:51.178Z,1025.73
2023-05-18T00:37:00.582Z,1025.84
2023-05-18T00:37:19.531Z,1025.85
2023-05-18T00:37:28.974Z,1025.77
2023-05-18T00:37:38.415Z,1025.78
2023-05-18T00:37:47.937Z,1025.82
2023-05-18T00:37:57.232Z,1025.74
2023-05-18T00:38:06.612Z,1025.81
2023-05-18T00:38:25.471Z,1025.77
2023-05-18T00:38:34.858Z,1025.83
2023-05-18T00:38:44.260Z,1025.86
2023-05-18T00:38:56.404Z,1025.92
2023-05-18T00:39:03.651Z,1025.91
2023-05-18T00:39:13.032Z,1025.84
2023-05-18T00:39:31.829Z,1025.90
2023-05-18T00:39:41.238Z,1025.88
2023-05-18T00:39:50.677Z,1025.91
2023-05-18T00:40:00.171Z,1025.88
2023-05-18T00:40:09.533Z,1025.86
2023-05-18T00:40:18.984Z,1025.84
2023-05-18T00:40:37.794Z,1025.87
2023-05-18T00:40:47.212Z,1025.84
2023-05-18T00:40:56.619Z,1025.91
2023-05-18T00:41:06.024Z,1025.86
2023-05-18T00:41:15.411Z,1025.82
2023-05-18T00:41:24.821Z,1025.85
2023-05-18T00:41:43.617Z,1025.86
2023-05-18T00:41:53.023Z,1025.91
2023-05-18T00:42:02.442Z,1025.85
2023-05-18T00:42:11.900Z,1025.87
2023-05-18T00:42:21.317Z,1025.91
2023-05-18T00:42:30.708Z,1025.94
2023-05-18T00:42:49.521Z,1025.94
2023-05-18T00:42:58.911Z,1025.94
2023-05-18T00:43:08.328Z,1025.93
2023-05-18T00:43:17.735Z,1025.94
2023-05-18T00:43:27.153Z,1025.90
2023-05-18T00:43:36.536Z,1025.92
2023-05-18T00:43:55.357Z,1025.88
2023-05-18T00:44:04.834Z,1025.94
2023-05-18T00:44:14.186Z,1025.87
2023-05-18T00:44:23.591Z,1025.90
2023-05-18T00:44:33.001Z,1025.95
2023-05-18T00:44:42.418Z,1025.93
2023-05-18T00:45:01.216Z,1025.88
2023-05-18T00:45:10.601Z,1025.86
2023-05-18T00:45:20.005Z,1025.84
2023-05-18T00:45:29.540Z,1025.84
2023-05-18T00:45:38.911Z,1025.90
2023-05-18T00:45:48.270Z,1025.87
2023-05-18T00:46:07.124Z,1025.85
2023-05-18T00:46:16.466Z,1025.88
2023-05-18T00:46:25.872Z,1025.84
2023-05-18T00:46:35.359Z,1025.83
2023-05-18T00:46:44.686Z,1025.91
2023-05-18T00:46:54.093Z,1025.89
2023-05-18T00:47:12.903Z,1025.97
2023-05-18T00:47:22.314Z,1025.92
2023-05-18T00:47:31.706Z,1025.87
2023-05-18T00:47:41.173Z,1025.95
2023-05-18T00:47:50.536Z,1025.94
2023-05-18T00:47:59.931Z,1025.89
2023-05-18T00:48:18.740Z,1025.89
2023-05-18T00:48:28.085Z,1025.86
2023-05-18T00:48:37.608Z,1025.89
2023-05-18T00:48:47.015Z,1025.88
2023-05-18T00:48:56.410Z,1025.89
2023-05-18T00:49:05.800Z,1025.94
2023-05-18T00:49:24.624Z,1025.92
2023-05-18T00:49:34.006Z,1025.90
2023-05-18T00:49:43.421Z,1025.98
2023-05-18T00:49:52.809Z,1025.91
2023-05-18T00:50:02.185Z,1025.87
2023-05-18T00:50:11.631Z,1025.93
2023-05-18T00:50:30.414Z,1025.89
2023-05-18T00:50:39.815Z,1025.92
2023-05-18T00:50:49.224Z,1025.88
2023-05-18T00:50:58.641Z,1025.89
2023-05-18T00:51:08.039Z,1025.83
2023-05-18T00:51:17.449Z,1025.95
2023-05-18T00:51:36.244Z,1025.84
2023-05-18T00:51:45.660Z,1025.82
2023-05-18T00:51:55.086Z,1025.90
2023-05-18T00:52:04.489Z,1025.86
2023-05-18T00:52:13.923Z,1025.89
2023-05-18T00:52:23.339Z,1025.86
2023-05-18T00:52:42.169Z,1025.88
2023-05-18T00:52:51.578Z,1025.88
2023-05-18T00:53:00.985Z,1025.85
2023-05-18T00:53:10.408Z,1025.82
2023-05-18T00:53:19.895Z,1025.81
2023-05-18T00:53:29.256Z,1025.84
2023-05-18T00:53:48.051Z,1025.81
2023-05-18T00:53:57.502Z,1025.87
2023-05-18T00:54:06.855Z,1025.82
2023-05-18T00:54:16.285Z,1025.82
2023-05-18T00:54:25.699Z,1025.92
2023-05-18T00:54:35.127Z,1025.89
2023-05-18T00:54:53.953Z,1025.90
2023-05-18T00:55:03.391Z,1025.89
2023-05-18T00:55:12.815Z,1025.89
2023-05-18T00:55:22.210Z,1025.83
2023-05-18T00:55:32.001Z,1025.82
2023-05-18T00:55:41.076Z,1025.81
2023-05-18T00:55:59.861Z,1025.84
2023-05-18T00:56:09.256Z,1025.81
2023-05-18T00:56:18.651Z,1025.86
2023-05-18T00:56:28.048Z,1025.84
2023-05-18T00:56:37.449Z,1025.87
2023-05-18T00:56:46.867Z,1025.80
2023-05-18T00:57:05.662Z,1025.84
2023-05-18T00:57:15.116Z,1025.91
2023-05-18T00:57:24.509Z,1025.83
2023-05-18T00:57:33.913Z,1025.84
2023-05-18T00:57:43.327Z,1025.89
2023-05-18T00:57:52.720Z,1025.84
2023-05-18T00:58:11.546Z,1025.91
2023-05-18T00:58:20.941Z,1025.89
2023-05-18T00:58:30.333Z,1025.91
2023-05-18T00:58:39.729Z,1025.89
2023-05-18T00:58:49.102Z,1025.84
2023-05-18T00:58:58.555Z,1025.84
2023-05-18T00:59:17.363Z,1025.87
2023-05-18T00:59:26.767Z,1025.86
2023-05-18T00:59:36.183Z,1025.93
2023-05-18T00:59:45.577Z,1025.86
2023-05-18T00:59:54.990Z,1025.89
2023-05-18T01:00:04.403Z,1025.88
2023-05-18T01:00:23.211Z,1025.91
2023-05-18T01:00:32.630Z,1025.89
2023-05-18T01:00:42.011Z,1025.88
2023-05-18T01:00:51.474Z,1025.86
2023-05-18T01:01:00.900Z,1025.90
2023-05-18T01:01:10.325Z,1025.87
2023-05-18T01:01:29.262Z,1025.92
2023-05-18T01:01:38.607Z,1025.91
2023-05-18T01:01:47.901Z,1025.85
2023-05-18T01:01:57.327Z,1025.87
2023-05-18T01:02:06.759Z,1025.86
2023-05-18T01:02:16.189Z,1026.00
2023-05-18T01:02:35.021Z,1025.93
2023-05-18T01:02:44.460Z,1025.84
2023-05-18T01:02:53.860Z,1025.86
2023-05-18T01:03:03.314Z,1025.85
2023-05-18T01:03:12.601Z,1025.92
2023-05-18T01:03:21.991Z,1025.89
2023-05-18T01:03:40.942Z,1025.81
2023-05-18T01:03:50.334Z,1025.94
2023-05-18T01:03:59.743Z,1025.90
2023-05-18T01:04:09.144Z,1025.89
2023-05-18T01:04:18.564Z,1025.90
2023-05-18T01:04:27.985Z,1025.93
2023-05-18T01:04:46.749Z,1025.87
2023-05-18T01:04:56.144Z,1025.96
2023-05-18T01:05:05.533Z,1025.98
2023-05-18T01:05:15.014Z,1025.93
2023-05-18T01:05:24.421Z,1025.91
2023-05-18T01:05:33.838Z,1025.95
2023-05-18T01:05:52.698Z,1025.91
2023-05-18T01:06:02.165Z,1025.96
2023-05-18T01:06:11.614Z,1025.89
2023-05-18T01:06:21.039Z,1025.92
2023-05-18T01:06:30.431Z,1025.92
2023-05-18T01:06:39.834Z,1025.90
2023-05-18T01:06:58.660Z,1025.95
2023-05-18T01:07:08.078Z,1025.90
2023-05-18T01:07:17.497Z,1026.00
2023-05-18T01:07:26.950Z,1025.91
2023-05-18T01:07:36.331Z,1025.88
2023-05-18T01:07:45.734Z,1025.99
2023-05-18T01:08:04.554Z,1025.95
2023-05-18T01:08:13.974Z,1025.99
2023-05-18T01:08:23.486Z,1025.96
2023-05-18T01:08:32.780Z,1025.96
2023-05-18T01:08:42.176Z,1025.91
2023-05-18T01:08:51.580Z,1025.96
2023-05-18T01:09:10.393Z,1025.93
2023-05-18T01:09:19.797Z,1025.98
2023-05-18T01:09:29.200Z,1025.95
2023-05-18T01:09:38.668Z,1025.95
2023-05-18T01:09:48.097Z,1025.95
2023-05-18T01:09:57.432Z,1025.98
2023-05-18T01:10:16.244Z,1025.96
2023-05-18T01:10:25.671Z,1026.03
2023-05-18T01:10:35.091Z,1025.94
2023-05-18T01:10:44.484Z,1025.97
2023-05-18T01:10:53.959Z,1025.96
2023-05-18T01:11:03.401Z,1025.99
2023-05-18T01:11:22.271Z,1025.94
2023-05-18T01:11:31.657Z,1025.98
2023-05-18T01:11:41.250Z,1025.95
2023-05-18T01:11:50.436Z,1026.02
2023-05-18T01:11:59.835Z,1025.97
2023-05-18T01:12:09.229Z,1025.98
2023-05-18T01:12:28.143Z,1025.95
2023-05-18T01:12:37.544Z,1025.99
2023-05-18T01:12:46.953Z,1025.99
2023-05-18T01:12:56.377Z,1025.99
2023-05-18T01:13:05.761Z,1025.95
2023-05-18T01:13:15.145Z,1025.97
2023-05-18T01:13:33.941Z,1025.99
2023-05-18T01:13:43.352Z,1025.96
2023-05-18T01:13:52.751Z,1025.94
2023-05-18T01:14:02.206Z,1025.97
2023-05-18T01:14:11.662Z,1025.98
2023-05-18T01:14:21.047Z,1026.01
2023-05-18T01:14:39.833Z,1026.02
2023-05-18T01:14:49.228Z,1026.05
2023-05-18T01:14:58.610Z,1026.00
2023-05-18T01:15:08.009Z,1026.05
2023-05-18T01:15:17.417Z,1026.02
2023-05-18T01:15:26.805Z,1025.95
2023-05-18T01:15:45.628Z,1025.99
2023-05-18T01:15:55.064Z,1025.98
2023-05-18T01:16:04.513Z,1026.00
2023-05-18T01:16:13.917Z,1025.94
2023-05-18T01:16:23.347Z,1025.97
2023-05-18T01:16:32.721Z,1025.93
2023-05-18T01:16:51.486Z,1025.96
2023-05-18T01:17:00.850Z,1026.06
2023-05-18T01:17:10.440Z,1025.99
2023-05-18T01:17:19.698Z,1025.94
2023-05-18T01:17:29.120Z,1025.93
2023-05-18T01:17:38.507Z,1025.97
2023-05-18T01:17:57.320Z,1025.99
2023-05-18T01:18:06.726Z,1025.92
2023-05-18T01:18:16.068Z,1025.98
2023-05-18T01:18:25.465Z,1025.95
2023-05-18T01:18:34.953Z,1025.87
2023-05-18T01:18:44.538Z,1025.89
2023-05-18T01:19:03.354Z,1025.97
2023-05-18T01:19:12.836Z,1026.01
2023-05-18T01:19:22.147Z,1025.87
2023-05-18T01:19:31.577Z,1025.95
2023-05-18T01:19:40.972Z,1025.90
2023-05-18T01:19:50.383Z,1025.94
2023-05-18T01:20:09.217Z,1025.98
2023-05-18T01:20:18.602Z,1025.89
2023-05-18T01:20:28.020Z,1025.87
2023-05-18T01:20:37.384Z,1025.93
2023-05-18T01:20:46.806Z,1025.90
2023-05-18T01:20:56.172Z,1025.89
2023-05-18T01:21:14.950Z,1025.86
2023-05-18T01:21:24.354Z,1025.87
2023-05-18T01:21:33.770Z,1025.92
2023-05-18T01:21:43.205Z,1025.97
2023-05-18T01:21:52.593Z,1025.93
2023-05-18T01:22:01.995Z,1025.90
2023-05-18T01:22:20.860Z,1025.91
2023-05-18T01:22:30.249Z,1025.91
2023-05-18T01:22:39.654Z,1025.97
2023-05-18T01:22:49.051Z,1025.89
2023-05-18T01:22:58.477Z,1025.91
2023-05-18T01:23:07.873Z,1025.97
2023-05-18T01:23:26.741Z,1025.96
2023-05-18T01:23:36.110Z,1026.01
2023-05-18T01:23:45.560Z,1026.01
2023-05-18T01:23:55.012Z,1025.99
2023-05-18T01:24:04.365Z,1025.99
2023-05-18T01:24:13.795Z,1026.02
2023-05-18T01:24:32.615Z,1025.99
2023-05-18T01:24:42.024Z,1026.00
2023-05-18T01:24:51.461Z,1026.02
2023-05-18T01:25:00.883Z,1026.03
2023-05-18T01:25:10.310Z,1026.02
2023-05-18T01:25:19.742Z,1025.99
2023-05-18T01:25:38.512Z,1026.04
2023-05-18T01:25:47.905Z,1026.01
2023-05-18T01:25:57.312Z,1026.04
2023-05-18T01:26:06.726Z,1026.01
2023-05-18T01:26:16.116Z,1026.09
2023-05-18T01:26:25.587Z,1026.03
2023-05-18T01:26:44.386Z,1026.04
2023-05-18T01:26:53.801Z,1026.07
2023-05-18T01:27:03.212Z,1026.06
2023-05-18T01:27:12.624Z,1026.04
2023-05-18T01:27:22.068Z,1026.02
2023-05-18T01:27:31.450Z,1026.07
2023-05-18T01:27:50.242Z,1026.06
2023-05-18T01:27:59.627Z,1026.07
2023-05-18T01:28:09.031Z,1026.08
2023-05-18T01:28:18.423Z,1026.04
2023-05-18T01:28:27.823Z,1025.98
2023-05-18T01:28:37.211Z,1026.09
2023-05-18T01:28:56.009Z,1026.06
2023-05-18T01:29:05.432Z,1026.05
2023-05-18T01:29:14.804Z,1025.97
2023-05-18T01:29:24.191Z,1026.07
2023-05-18T01:29:33.577Z,1026.06
2023-05-18T01:29:42.979Z,1026.02
2023-05-18T01:30:01.791Z,1026.10
2023-05-18T01:30:11.173Z,1026.05
2023-05-18T01:30:20.589Z,1026.11
2023-05-18T01:30:29.937Z,1026.07
2023-05-18T01:30:39.350Z,1026.06
2023-05-18T01:30:48.730Z,1026.04
2023-05-18T01:31:07.577Z,1026.05
2023-05-18T01:31:16.928Z,1026.06
2023-05-18T01:31:26.323Z,1026.10
2023-05-18T01:31:35.744Z,1026.08
2023-05-18T01:31:45.109Z,1026.03
2023-05-18T01:31:54.497Z,1026.05
2023-05-18T01:32:13.314Z,1026.01
2023-05-18T01:32:22.754Z,1026.01
2023-05-18T01:32:32.235Z,1025.95
2023-05-18T01:32:41.605Z,1026.05
2023-05-18T01:32:51.014Z,1025.97
2023-05-18T01:33:00.383Z,1025.98
2023-05-18T01:33:19.149Z,1025.99
2023-05-18T01:33:28.541Z,1025.99
2023-05-18T01:33:37.965Z,1026.05
2023-05-18T01:33:47.360Z,1025.99
2023-05-18T01:33:56.751Z,1025.96
2023-05-18T01:34:06.135Z,1025.98
2023-05-18T01:34:24.961Z,1025.99
2023-05-18T01:34:34.347Z,1025.94
2023-05-18T01:34:43.726Z,1025.95
2023-05-18T01:34:53.117Z,1025.99
2023-05-18T01:35:02.510Z,1026.03
2023-05-18T01:35:12.017Z,1025.94
2023-05-18T01:35:30.990Z,1026.02
2023-05-18T01:35:40.275Z,1025.97
2023-05-18T01:35:49.697Z,1026.00
2023-05-18T01:35:59.075Z,1025.98
2023-05-18T01:36:08.474Z,1025.93
2023-05-18T01:36:17.863Z,1025.95
2023-05-18T01:36:36.677Z,1025.98
2023-05-18T01:36:46.073Z,1025.97
2023-05-18T01:36:55.452Z,1025.99
2023-05-18T01:37:04.851Z,1026.01
2023-05-18T01:37:14.249Z,1025.99
2023-05-18T01:37:23.676Z,1025.98
2023-05-18T01:37:42.457Z,1026.04
2023-05-18T01:37:51.860Z,1025.98
2023-05-18T01:38:01.262Z,1025.95
2023-05-18T01:38:10.725Z,1026.01
2023-05-18T01:38:20.128Z,1026.05
2023-05-18T01:38:29.568Z,1026.04
2023-05-18T01:38:48.343Z,1025.97
2023-05-18T01:38:57.738Z,1026.04
2023-05-18T01:39:07.142Z,1026.03
2023-05-18T01:39:16.553Z,1025.99
2023-05-18T01:39:26.044Z,1026.04
2023-05-18T01:39:35.449Z,1026.01
2023-05-18T01:39:54.269Z,1026.01
2023-05-18T01:40:03.651Z,1026.04
2023-05-18T01:40:13.043Z,1026.05
2023-05-18T01:40:22.434Z,1026.00
2023-05-18T01:40:31.808Z,1026.07
2023-05-18T01:40:41.199Z,1026.07
2023-05-18T01:40:59.971Z,1026.01
2023-05-18T01:41:09.354Z,1026.07
2023-05-18T01:41:19.027Z,1026.04
2023-05-18T01:41:28.385Z,1026.00
2023-05-18T01:41:37.796Z,1026.03
2023-05-18T01:41:47.179Z,1026.03
2023-05-18T01:42:05.980Z,1026.01
2023-05-18T01:42:15.375Z,1026.07
2023-05-18T01:42:24.780Z,1026.04
2023-05-18T01:42:34.179Z,1026.05
2023-05-18T01:42:43.579Z,1026.05
2023-05-18T01:42:52.961Z,1026.06
2023-05-18T01:43:11.811Z,1026.07
2023-05-18T01:43:21.169Z,1026.03
2023-05-18T01:43:30.589Z,1026.07
2023-05-18T01:43:39.996Z,1026.04
2023-05-18T01:43:49.398Z,1026.04
2023-05-18T01:43:58.819Z,1026.02
2023-05-18T01:44:17.594Z,1026.06
2023-05-18T01:44:26.995Z,1026.03
2023-05-18T01:44:36.403Z,1026.03
2023-05-18T01:44:45.798Z,1026.07
2023-05-18T01:44:55.188Z,1026.09
2023-05-18T01:45:04.568Z,1025.97
2023-05-18T01:45:23.409Z,1026.05
2023-05-18T01:45:32.804Z,1026.09
2023-05-18T01:45:42.196Z,1026.04
2023-05-18T01:45:51.600Z,1026.02
2023-05-18T01:46:01.022Z,1026.05
2023-05-18T01:46:10.393Z,1026.06
2023-05-18T01:46:29.149Z,1026.02
2023-05-18T01:46:38.572Z,1026.03
2023-05-18T01:46:47.976Z,1026.10
2023-05-18T01:46:57.290Z,1026.11
2023-05-18T01:47:06.664Z,1026.03
2023-05-18T01:47:16.153Z,1026.08
2023-05-18T01:47:35.017Z,1026.04
2023-05-18T01:47:44.390Z,1026.08
2023-05-18T01:47:53.788Z,1026.04
2023-05-18T01:48:03.199Z,1026.09
2023-05-18T01:48:12.539Z,1026.10
2023-05-18T01:48:21.928Z,1026.10
2023-05-18T01:48:40.812Z,1026.06
2023-05-18T01:48:50.188Z,1026.09
2023-05-18T01:48:59.595Z,1026.06
2023-05-18T01:49:09.016Z,1026.12
2023-05-18T01:49:18.410Z,1026.06
2023-05-18T01:49:27.806Z,1026.11
2023-05-18T01:49:46.619Z,1026.11
2023-05-18T01:49:56.057Z,1026.07
2023-05-18T01:50:05.454Z,1026.08
2023-05-18T01:50:14.869Z,1026.07
2023-05-18T01:50:24.250Z,1026.05
2023-05-18T01:50:33.649Z,1026.13
2023-05-18T01:50:52.422Z,1026.08
2023-05-18T01:51:01.808Z,1026.06
2023-05-18T01:51:11.194Z,1026.14
2023-05-18T01:51:20.579Z,1026.18
2023-05-18T01:51:29.959Z,1026.11
2023-05-18T01:51:39.357Z,1026.11
2023-05-18T01:51:58.149Z,1026.12
2023-05-18T01:52:07.574Z,1026.09
2023-05-18T01:52:16.966Z,1026.15
2023-05-18T01:52:26.438Z,1026.13
2023-05-18T01:52:35.813Z,1026.15
2023-05-18T01:52:45.214Z,1026.12
2023-05-18T01:53:03.999Z,1026.11
2023-05-18T01:53:13.405Z,1026.11
2023-05-18T01:53:22.782Z,1026.18
2023-05-18T01:53:32.293Z,1026.16
2023-05-18T01:53:41.831Z,1026.15
2023-05-18T01:53:51.107Z,1026.17
2023-05-18T01:54:09.982Z,1026.12
2023-05-18T01:54:19.360Z,1026.16
2023-05-18T01:54:28.798Z,1026.18
2023-05-18T01:54:38.209Z,1026.19
2023-05-18T01:54:47.602Z,1026.13
2023-05-18T01:54:57.000Z,1026.21
2023-05-18T01:55:15.783Z,1026.12
2023-05-18T01:55:25.172Z,1026.18
2023-05-18T01:55:34.588Z,1026.10
2023-05-18T01:55:43.939Z,1026.19
2023-05-18T01:55:53.328Z,1026.14
2023-05-18T01:56:02.751Z,1026.08
2023-05-18T01:56:21.546Z,1026.13
2023-05-18T01:56:30.950Z,1026.11
2023-05-18T01:56:40.336Z,1026.14
2023-05-18T01:56:49.756Z,1026.17
2023-05-18T01:56:59.135Z,1026.10
2023-05-18T01:57:09.440Z,1026.13
2023-05-18T01:57:27.361Z,1026.12
2023-05-18T01:57:36.766Z,1026.06
2023-05-18T01:57:46.176Z,1026.14
2023-05-18T01:57:55.557Z,1026.11
2023-05-18T01:58:04.950Z,1026.12
2023-05-18T01:58:14.359Z,1026.06
2023-05-18T01:58:33.153Z,1026.18
2023-05-18T01:58:42.542Z,1026.16
2023-05-18T01:58:51.925Z,1026.15
2023-05-18T01:59:01.296Z,1026.09
2023-05-18T01:59:10.691Z,1026.12
2023-05-18T01:59:20.102Z,1026.09
2023-05-18T01:59:38.917Z,1026.16
2023-05-18T01:59:48.309Z,1026.14
2023-05-18T01:59:57.688Z,1026.11
2023-05-18T02:00:07.078Z,1026.17
2023-05-18T02:00:16.464Z,1026.19
2023-05-18T02:00:25.860Z,1026.12
2023-05-18T02:00:44.621Z,1026.08
2023-05-18T02:00:54.010Z,1026.10
2023-05-18T02:01:03.502Z,1026.13
2023-05-18T02:01:12.890Z,1026.14
2023-05-18T02:01:22.281Z,1026.12
2023-05-18T02:01:31.692Z,1026.06
2023-05-18T02:01:50.523Z,1026.11
2023-05-18T02:02:00.225Z,1026.10
2023-05-18T02:02:09.305Z,1026.14
2023-05-18T02:02:18.698Z,1026.13
2023-05-18T02:02:28.255Z,1026.18
2023-05-18T02:02:37.575Z,1026.14
2023-05-18T02:02:56.332Z,1026.05
2023-05-18T02:03:05.751Z,1026.17
2023-05-18T02:03:15.181Z,1026.11
2023-05-18T02:03:24.577Z,1026.16
2023-05-18T02:03:33.999Z,1026.14
2023-05-18T02:03:43.540Z,1026.11
2023-05-18T02:04:02.162Z,1026.12
2023-05-18T02:04:11.632Z,1026.11
2023-05-18T02:04:21.005Z,1026.12
2023-05-18T02:04:30.382Z,1026.11
2023-05-18T02:04:39.788Z,1026.10
2023-05-18T02:04:49.174Z,1026.10
2023-05-18T02:05:07.972Z,1026.11
2023-05-18T02:05:17.388Z,1026.07
2023-05-18T02:05:26.755Z,1026.15
2023-05-18T02:05:36.137Z,1026.09
2023-05-18T02:05:45.530Z,1026.16
2023-05-18T02:05:54.899Z,1026.10
2023-05-18T02:06:13.691Z,1026.12
2023-05-18T02:06:23.120Z,1026.11
2023-05-18T02:06:32.545Z,1026.11
2023-05-18T02:06:41.951Z,1026.13
2023-05-18T02:06:51.354Z,1026.18
2023-05-18T02:07:00.795Z,1026.12
2023-05-18T02:07:19.543Z,1026.16
2023-05-18T02:07:28.957Z,1026.15
2023-05-18T02:07:38.350Z,1026.16
2023-05-18T02:07:47.800Z,1026.13
2023-05-18T02:07:57.104Z,1026.20
2023-05-18T02:08:06.496Z,1026.21
2023-05-18T02:08:25.244Z,1026.17
2023-05-18T02:08:34.628Z,1026.16
2023-05-18T02:08:44.031Z,1026.14
2023-05-18T02:08:53.439Z,1026.16
2023-05-18T02:09:02.807Z,1026.14
2023-05-18T02:09:12.420Z,1026.10
2023-05-18T02:09:31.232Z,1026.14
2023-05-18T02:09:40.625Z,1026.18
2023-05-18T02:09:50.031Z,1026.12
2023-05-18T02:09:59.415Z,1026.15
2023-05-18T02:10:08.816Z,1026.17
2023-05-18T02:10:18.300Z,1026.18
2023-05-18T02:10:37.120Z,1026.14
2023-05-18T02:10:46.520Z,1026.13
2023-05-18T02:10:55.965Z,1026.19
2023-05-18T02:11:05.333Z,1026.20
2023-05-18T02:11:14.747Z,1026.20
2023-05-18T02:11:24.136Z,1026.13
2023-05-18T02:11:42.929Z,1026.13
2023-05-18T02:11:52.343Z,1026.14
2023-05-18T02:12:01.725Z,1026.24
2023-05-18T02:12:11.115Z,1026.16
2023-05-18T02:12:20.493Z,1026.13
2023-05-18T02:12:29.902Z,1026.17